sensor_id;sensor_type;location;lat;lon;timestamp;P1;durP1;ratioP1;P2;durP2;ratioP2
20705;SDS011;10514;49.468;11.044;2022-09-29T00:01:56;9.43;;;4.53;;
20705;SDS011;10514;49.468;11.044;2022-09-29T00:04:22;7.07;;;4.80;;
20705;SDS011;10514;49.468;11.044;2022-09-29T00:06:48;13.17;;;5.20;;
20705;SDS011;10514;49.468;11.044;2022-09-29T00:09:14;6.73;;;4.80;;
20705;SDS011;10514;49.468;11.044;2022-09-29T00:11:40;9.47;;;4.50;;
20705;SDS011;10514;49.468;11.044;2022-09-29T00:14:06;9.97;;;4.60;;
20705;SDS011;10514;49.468;11.044;2022-09-29T00:16:31;12.70;;;4.70;;
20705;SDS011;10514;49.468;11.044;2022-09-29T00:18:57;6.47;;;4.23;;
20705;SDS011;10514;49.468;11.044;2022-09-29T00:21:24;10.00;;;4.13;;
20705;SDS011;10514;49.468;11.044;2022-09-29T00:23:50;9.87;;;4.43;;
20705;SDS011;10514;49.468;11.044;2022-09-29T00:26:17;7.40;;;4.00;;
20705;SDS011;10514;49.468;11.044;2022-09-29T00:28:48;6.83;;;4.40;;
20705;SDS011;10514;49.468;11.044;2022-09-29T00:31:16;9.37;;;4.73;;
20705;SDS011;10514;49.468;11.044;2022-09-29T00:33:43;9.17;;;5.13;;
20705;SDS011;10514;49.468;11.044;2022-09-29T00:36:10;8.53;;;4.50;;
20705;SDS011;10514;49.468;11.044;2022-09-29T00:38:36;10.07;;;4.13;;
20705;SDS011;10514;49.468;11.044;2022-09-29T00:41:03;10.60;;;4.30;;
20705;SDS011;10514;49.468;11.044;2022-09-29T00:46:15;5.60;;;4.20;;
20705;SDS011;10514;49.468;11.044;2022-09-29T00:48:43;5.53;;;4.17;;
20705;SDS011;10514;49.468;11.044;2022-09-29T00:51:09;6.83;;;3.80;;
20705;SDS011;10514;49.468;11.044;2022-09-29T00:53:35;4.50;;;3.70;;
20705;SDS011;10514;49.468;11.044;2022-09-29T00:56:03;6.23;;;4.60;;
20705;SDS011;10514;49.468;11.044;2022-09-29T00:58:52;7.93;;;3.90;;
20705;SDS011;10514;49.468;11.044;2022-09-29T01:01:20;9.37;;;4.13;;
20705;SDS011;10514;49.468;11.044;2022-09-29T01:03:47;7.87;;;4.90;;
20705;SDS011;10514;49.468;11.044;2022-09-29T01:06:17;6.47;;;3.80;;
20705;SDS011;10514;49.468;11.044;2022-09-29T01:09:03;6.17;;;4.00;;
20705;SDS011;10514;49.468;11.044;2022-09-29T01:11:29;5.67;;;3.97;;
20705;SDS011;10514;49.468;11.044;2022-09-29T01:13:56;8.90;;;4.03;;
20705;SDS011;10514;49.468;11.044;2022-09-29T01:16:27;5.03;;;3.60;;
20705;SDS011;10514;49.468;11.044;2022-09-29T01:18:53;6.07;;;3.73;;
20705;SDS011;10514;49.468;11.044;2022-09-29T01:21:26;4.93;;;4.10;;
20705;SDS011;10514;49.468;11.044;2022-09-29T01:31:55;5.60;;;3.90;;
20705;SDS011;10514;49.468;11.044;2022-09-29T01:34:29;7.20;;;4.20;;
20705;SDS011;10514;49.468;11.044;2022-09-29T01:37:04;6.47;;;4.20;;
20705;SDS011;10514;49.468;11.044;2022-09-29T01:39:35;5.20;;;3.50;;
20705;SDS011;10514;49.468;11.044;2022-09-29T01:42:21;9.47;;;4.50;;
20705;SDS011;10514;49.468;11.044;2022-09-29T01:44:49;6.30;;;4.23;;
20705;SDS011;10514;49.468;11.044;2022-09-29T01:47:21;6.70;;;4.33;;
20705;SDS011;10514;49.468;11.044;2022-09-29T01:49:55;7.90;;;4.37;;
20705;SDS011;10514;49.468;11.044;2022-09-29T01:52:22;5.67;;;3.83;;
20705;SDS011;10514;49.468;11.044;2022-09-29T01:55:03;6.13;;;3.40;;
20705;SDS011;10514;49.468;11.044;2022-09-29T01:57:36;7.57;;;4.27;;
20705;SDS011;10514;49.468;11.044;2022-09-29T02:00:13;6.73;;;4.00;;
20705;SDS011;10514;49.468;11.044;2022-09-29T02:02:45;9.30;;;4.17;;
20705;SDS011;10514;49.468;11.044;2022-09-29T02:05:15;6.13;;;4.23;;
20705;SDS011;10514;49.468;11.044;2022-09-29T02:07:44;5.90;;;4.20;;
20705;SDS011;10514;49.468;11.044;2022-09-29T02:10:13;7.93;;;4.07;;
20705;SDS011;10514;49.468;11.044;2022-09-29T02:12:40;9.57;;;3.87;;
20705;SDS011;10514;49.468;11.044;2022-09-29T02:15:07;5.67;;;3.60;;
20705;SDS011;10514;49.468;11.044;2022-09-29T02:17:36;6.37;;;3.90;;
20705;SDS011;10514;49.468;11.044;2022-09-29T02:20:02;11.27;;;4.57;;
20705;SDS011;10514;49.468;11.044;2022-09-29T02:22:29;9.70;;;4.50;;
20705;SDS011;10514;49.468;11.044;2022-09-29T02:24:55;11.80;;;4.13;;
20705;SDS011;10514;49.468;11.044;2022-09-29T02:27:23;8.20;;;4.57;;
20705;SDS011;10514;49.468;11.044;2022-09-29T02:29:50;7.13;;;4.53;;
20705;SDS011;10514;49.468;11.044;2022-09-29T02:32:16;8.83;;;5.00;;
20705;SDS011;10514;49.468;11.044;2022-09-29T02:34:44;8.97;;;5.03;;
20705;SDS011;10514;49.468;11.044;2022-09-29T02:37:31;6.77;;;4.47;;
20705;SDS011;10514;49.468;11.044;2022-09-29T02:45:16;7.70;;;4.67;;
20705;SDS011;10514;49.468;11.044;2022-09-29T02:58:09;8.47;;;4.87;;
20705;SDS011;10514;49.468;11.044;2022-09-29T03:00:48;9.93;;;4.93;;
20705;SDS011;10514;49.468;11.044;2022-09-29T03:03:14;5.27;;;4.30;;
20705;SDS011;10514;49.468;11.044;2022-09-29T03:05:39;8.27;;;5.03;;
20705;SDS011;10514;49.468;11.044;2022-09-29T03:08:05;7.37;;;4.40;;
20705;SDS011;10514;49.468;11.044;2022-09-29T03:10:31;6.57;;;4.77;;
20705;SDS011;10514;49.468;11.044;2022-09-29T03:12:57;7.27;;;4.53;;
20705;SDS011;10514;49.468;11.044;2022-09-29T03:15:23;6.83;;;4.83;;
20705;SDS011;10514;49.468;11.044;2022-09-29T03:17:49;5.80;;;3.70;;
20705;SDS011;10514;49.468;11.044;2022-09-29T03:20:15;9.90;;;4.90;;
20705;SDS011;10514;49.468;11.044;2022-09-29T03:22:41;8.33;;;5.10;;
20705;SDS011;10514;49.468;11.044;2022-09-29T03:25:07;9.80;;;4.63;;
20705;SDS011;10514;49.468;11.044;2022-09-29T03:27:33;8.57;;;4.70;;
20705;SDS011;10514;49.468;11.044;2022-09-29T03:30:00;7.87;;;4.70;;
20705;SDS011;10514;49.468;11.044;2022-09-29T03:32:26;7.37;;;4.20;;
20705;SDS011;10514;49.468;11.044;2022-09-29T03:34:52;8.97;;;4.50;;
20705;SDS011;10514;49.468;11.044;2022-09-29T03:37:19;7.70;;;4.33;;
20705;SDS011;10514;49.468;11.044;2022-09-29T03:39:44;10.40;;;5.10;;
20705;SDS011;10514;49.468;11.044;2022-09-29T03:42:10;7.80;;;4.57;;
20705;SDS011;10514;49.468;11.044;2022-09-29T03:44:36;7.07;;;4.57;;
20705;SDS011;10514;49.468;11.044;2022-09-29T03:47:02;7.03;;;4.37;;
20705;SDS011;10514;49.468;11.044;2022-09-29T03:49:28;5.83;;;4.07;;
20705;SDS011;10514;49.468;11.044;2022-09-29T03:51:54;8.67;;;4.53;;
20705;SDS011;10514;49.468;11.044;2022-09-29T03:54:20;7.07;;;4.63;;
20705;SDS011;10514;49.468;11.044;2022-09-29T03:56:48;6.43;;;4.53;;
20705;SDS011;10514;49.468;11.044;2022-09-29T03:59:14;8.93;;;4.77;;
20705;SDS011;10514;49.468;11.044;2022-09-29T04:01:40;6.80;;;4.83;;
20705;SDS011;10514;49.468;11.044;2022-09-29T04:04:07;8.63;;;5.33;;
20705;SDS011;10514;49.468;11.044;2022-09-29T04:06:33;15.43;;;4.80;;
20705;SDS011;10514;49.468;11.044;2022-09-29T04:09:00;9.40;;;5.30;;
20705;SDS011;10514;49.468;11.044;2022-09-29T04:11:26;9.50;;;4.83;;
20705;SDS011;10514;49.468;11.044;2022-09-29T04:13:52;6.63;;;4.80;;
20705;SDS011;10514;49.468;11.044;2022-09-29T04:16:18;11.23;;;4.73;;
20705;SDS011;10514;49.468;11.044;2022-09-29T04:18:44;6.50;;;4.33;;
20705;SDS011;10514;49.468;11.044;2022-09-29T04:21:10;7.40;;;4.60;;
20705;SDS011;10514;49.468;11.044;2022-09-29T04:23:36;7.67;;;4.93;;
20705;SDS011;10514;49.468;11.044;2022-09-29T04:26:02;7.07;;;4.60;;
20705;SDS011;10514;49.468;11.044;2022-09-29T04:28:32;10.00;;;5.13;;
20705;SDS011;10514;49.468;11.044;2022-09-29T04:30:58;6.20;;;4.13;;
20705;SDS011;10514;49.468;11.044;2022-09-29T04:33:24;7.70;;;4.70;;
20705;SDS011;10514;49.468;11.044;2022-09-29T04:35:50;8.50;;;5.00;;
20705;SDS011;10514;49.468;11.044;2022-09-29T04:38:16;6.73;;;5.27;;
20705;SDS011;10514;49.468;11.044;2022-09-29T04:40:42;6.37;;;4.40;;
20705;SDS011;10514;49.468;11.044;2022-09-29T04:43:08;6.80;;;4.40;;
20705;SDS011;10514;49.468;11.044;2022-09-29T04:45:34;6.80;;;4.90;;
20705;SDS011;10514;49.468;11.044;2022-09-29T04:48:00;6.60;;;4.73;;
20705;SDS011;10514;49.468;11.044;2022-09-29T04:50:26;6.23;;;4.43;;
20705;SDS011;10514;49.468;11.044;2022-09-29T04:52:53;7.13;;;4.80;;
20705;SDS011;10514;49.468;11.044;2022-09-29T04:55:18;9.43;;;4.80;;
20705;SDS011;10514;49.468;11.044;2022-09-29T04:57:44;6.73;;;4.57;;
20705;SDS011;10514;49.468;11.044;2022-09-29T05:00:11;8.87;;;4.47;;
20705;SDS011;10514;49.468;11.044;2022-09-29T05:02:37;8.57;;;4.83;;
20705;SDS011;10514;49.468;11.044;2022-09-29T05:05:03;10.93;;;5.13;;
20705;SDS011;10514;49.468;11.044;2022-09-29T05:07:30;10.23;;;5.27;;
20705;SDS011;10514;49.468;11.044;2022-09-29T05:09:56;7.53;;;5.53;;
20705;SDS011;10514;49.468;11.044;2022-09-29T05:12:22;10.10;;;5.33;;
20705;SDS011;10514;49.468;11.044;2022-09-29T05:14:48;9.87;;;5.30;;
20705;SDS011;10514;49.468;11.044;2022-09-29T05:17:14;10.43;;;5.63;;
20705;SDS011;10514;49.468;11.044;2022-09-29T05:19:40;9.80;;;5.63;;
20705;SDS011;10514;49.468;11.044;2022-09-29T05:22:06;12.03;;;6.03;;
20705;SDS011;10514;49.468;11.044;2022-09-29T05:24:32;11.20;;;6.20;;
20705;SDS011;10514;49.468;11.044;2022-09-29T05:26:58;10.33;;;5.87;;
20705;SDS011;10514;49.468;11.044;2022-09-29T05:29:24;9.43;;;6.27;;
20705;SDS011;10514;49.468;11.044;2022-09-29T05:31:50;8.50;;;5.97;;
20705;SDS011;10514;49.468;11.044;2022-09-29T05:34:16;8.23;;;5.70;;
20705;SDS011;10514;49.468;11.044;2022-09-29T05:36:42;8.07;;;5.53;;
20705;SDS011;10514;49.468;11.044;2022-09-29T05:39:08;9.23;;;5.77;;
20705;SDS011;10514;49.468;11.044;2022-09-29T05:41:34;8.93;;;5.63;;
20705;SDS011;10514;49.468;11.044;2022-09-29T05:44:00;8.80;;;6.10;;
20705;SDS011;10514;49.468;11.044;2022-09-29T05:46:26;9.17;;;5.80;;
20705;SDS011;10514;49.468;11.044;2022-09-29T05:48:52;9.07;;;5.83;;
20705;SDS011;10514;49.468;11.044;2022-09-29T05:51:20;9.17;;;6.30;;
20705;SDS011;10514;49.468;11.044;2022-09-29T05:53:46;9.47;;;5.27;;
20705;SDS011;10514;49.468;11.044;2022-09-29T05:56:14;8.03;;;5.23;;
20705;SDS011;10514;49.468;11.044;2022-09-29T05:58:40;9.90;;;5.30;;
20705;SDS011;10514;49.468;11.044;2022-09-29T06:01:07;10.70;;;5.83;;
20705;SDS011;10514;49.468;11.044;2022-09-29T06:03:34;15.77;;;8.37;;
20705;SDS011;10514;49.468;11.044;2022-09-29T06:06:18;17.67;;;7.90;;
20705;SDS011;10514;49.468;11.044;2022-09-29T06:08:45;11.10;;;6.20;;
20705;SDS011;10514;49.468;11.044;2022-09-29T06:13:42;9.37;;;5.53;;
20705;SDS011;10514;49.468;11.044;2022-09-29T06:16:09;9.47;;;5.47;;
20705;SDS011;10514;49.468;11.044;2022-09-29T06:18:35;12.50;;;6.57;;
20705;SDS011;10514;49.468;11.044;2022-09-29T06:23:27;15.03;;;6.80;;
20705;SDS011;10514;49.468;11.044;2022-09-29T06:25:57;10.13;;;5.77;;
20705;SDS011;10514;49.468;11.044;2022-09-29T06:28:23;10.53;;;6.40;;
20705;SDS011;10514;49.468;11.044;2022-09-29T06:30:49;12.10;;;6.67;;
20705;SDS011;10514;49.468;11.044;2022-09-29T06:33:15;9.13;;;6.40;;
20705;SDS011;10514;49.468;11.044;2022-09-29T06:35:45;10.97;;;6.47;;
20705;SDS011;10514;49.468;11.044;2022-09-29T06:38:29;8.40;;;6.17;;
20705;SDS011;10514;49.468;11.044;2022-09-29T06:40:56;10.30;;;5.23;;
20705;SDS011;10514;49.468;11.044;2022-09-29T06:43:21;6.53;;;4.83;;
20705;SDS011;10514;49.468;11.044;2022-09-29T06:45:47;7.97;;;5.23;;
20705;SDS011;10514;49.468;11.044;2022-09-29T06:48:14;10.30;;;5.73;;
20705;SDS011;10514;49.468;11.044;2022-09-29T06:50:40;8.93;;;5.53;;
20705;SDS011;10514;49.468;11.044;2022-09-29T06:53:06;7.17;;;4.90;;
20705;SDS011;10514;49.468;11.044;2022-09-29T06:55:32;6.37;;;5.50;;
20705;SDS011;10514;49.468;11.044;2022-09-29T06:57:58;7.23;;;5.40;;
20705;SDS011;10514;49.468;11.044;2022-09-29T07:00:24;7.53;;;4.70;;
20705;SDS011;10514;49.468;11.044;2022-09-29T07:02:50;11.63;;;4.97;;
20705;SDS011;10514;49.468;11.044;2022-09-29T07:05:16;8.37;;;4.70;;
20705;SDS011;10514;49.468;11.044;2022-09-29T07:07:42;6.87;;;4.90;;
20705;SDS011;10514;49.468;11.044;2022-09-29T07:10:08;6.67;;;4.57;;
20705;SDS011;10514;49.468;11.044;2022-09-29T07:12:34;9.50;;;4.53;;
20705;SDS011;10514;49.468;11.044;2022-09-29T07:15:00;8.33;;;5.50;;
20705;SDS011;10514;49.468;11.044;2022-09-29T07:17:26;6.43;;;5.07;;
20705;SDS011;10514;49.468;11.044;2022-09-29T07:19:52;9.03;;;4.73;;
20705;SDS011;10514;49.468;11.044;2022-09-29T07:22:20;7.83;;;5.13;;
20705;SDS011;10514;49.468;11.044;2022-09-29T07:24:46;8.23;;;4.57;;
20705;SDS011;10514;49.468;11.044;2022-09-29T07:27:12;7.20;;;4.47;;
20705;SDS011;10514;49.468;11.044;2022-09-29T07:29:38;6.37;;;4.40;;
20705;SDS011;10514;49.468;11.044;2022-09-29T07:32:05;6.37;;;4.50;;
20705;SDS011;10514;49.468;11.044;2022-09-29T07:34:31;5.38;;;4.28;;
20705;SDS011;10514;49.468;11.044;2022-09-29T07:36:57;7.90;;;4.13;;
20705;SDS011;10514;49.468;11.044;2022-09-29T07:39:23;5.40;;;4.10;;
20705;SDS011;10514;49.468;11.044;2022-09-29T07:41:49;5.90;;;4.18;;
20705;SDS011;10514;49.468;11.044;2022-09-29T07:44:16;5.13;;;3.60;;
20705;SDS011;10514;49.468;11.044;2022-09-29T07:46:42;5.90;;;4.20;;
20705;SDS011;10514;49.468;11.044;2022-09-29T07:49:08;6.78;;;4.70;;
20705;SDS011;10514;49.468;11.044;2022-09-29T07:51:34;12.40;;;5.85;;
20705;SDS011;10514;49.468;11.044;2022-09-29T07:54:01;6.70;;;4.55;;
20705;SDS011;10514;49.468;11.044;2022-09-29T07:56:27;9.82;;;4.80;;
20705;SDS011;10514;49.468;11.044;2022-09-29T07:58:53;5.38;;;4.22;;
20705;SDS011;10514;49.468;11.044;2022-09-29T08:01:20;9.20;;;4.68;;
20705;SDS011;10514;49.468;11.044;2022-09-29T08:03:50;8.43;;;4.25;;
20705;SDS011;10514;49.468;11.044;2022-09-29T08:06:18;6.57;;;4.85;;
20705;SDS011;10514;49.468;11.044;2022-09-29T08:08:44;4.80;;;3.70;;
20705;SDS011;10514;49.468;11.044;2022-09-29T08:11:11;7.13;;;3.78;;
20705;SDS011;10514;49.468;11.044;2022-09-29T08:13:38;3.85;;;3.45;;
20705;SDS011;10514;49.468;11.044;2022-09-29T08:16:05;5.15;;;3.65;;
20705;SDS011;10514;49.468;11.044;2022-09-29T08:18:32;4.72;;;4.00;;
20705;SDS011;10514;49.468;11.044;2022-09-29T08:20:58;7.07;;;3.30;;
20705;SDS011;10514;49.468;11.044;2022-09-29T08:23:24;4.45;;;3.08;;
20705;SDS011;10514;49.468;11.044;2022-09-29T08:26:10;4.38;;;3.33;;
20705;SDS011;10514;49.468;11.044;2022-09-29T08:28:37;6.50;;;3.67;;
20705;SDS011;10514;49.468;11.044;2022-09-29T08:31:03;5.78;;;3.40;;
20705;SDS011;10514;49.468;11.044;2022-09-29T08:33:30;4.22;;;3.05;;
20705;SDS011;10514;49.468;11.044;2022-09-29T08:35:56;5.07;;;3.40;;
20705;SDS011;10514;49.468;11.044;2022-09-29T08:38:23;5.93;;;3.90;;
20705;SDS011;10514;49.468;11.044;2022-09-29T08:40:50;5.25;;;4.03;;
20705;SDS011;10514;49.468;11.044;2022-09-29T08:43:23;5.72;;;3.95;;
20705;SDS011;10514;49.468;11.044;2022-09-29T08:46:15;6.53;;;3.47;;
20705;SDS011;10514;49.468;11.044;2022-09-29T08:48:38;6.00;;;3.40;;
20705;SDS011;10514;49.468;11.044;2022-09-29T08:51:11;10.20;;;3.45;;
20705;SDS011;10514;49.468;11.044;2022-09-29T08:53:42;7.28;;;3.70;;
20705;SDS011;10514;49.468;11.044;2022-09-29T08:56:12;4.18;;;3.15;;
20705;SDS011;10514;49.468;11.044;2022-09-29T08:58:41;4.28;;;3.55;;
20705;SDS011;10514;49.468;11.044;2022-09-29T09:06:45;5.30;;;4.03;;
20705;SDS011;10514;49.468;11.044;2022-09-29T09:12:00;5.05;;;4.55;;
20705;SDS011;10514;49.468;11.044;2022-09-29T09:22:05;4.72;;;4.15;;
20705;SDS011;10514;49.468;11.044;2022-09-29T09:24:57;7.35;;;4.90;;
20705;SDS011;10514;49.468;11.044;2022-09-29T09:27:26;12.55;;;5.82;;
20705;SDS011;10514;49.468;11.044;2022-09-29T09:30:00;8.82;;;4.43;;
20705;SDS011;10514;49.468;11.044;2022-09-29T09:32:29;8.60;;;4.78;;
20705;SDS011;10514;49.468;11.044;2022-09-29T09:35:00;7.82;;;3.88;;
20705;SDS011;10514;49.468;11.044;2022-09-29T09:37:37;5.60;;;4.20;;
20705;SDS011;10514;49.468;11.044;2022-09-29T09:40:18;5.38;;;3.85;;
20705;SDS011;10514;49.468;11.044;2022-09-29T09:42:52;5.82;;;3.72;;
20705;SDS011;10514;49.468;11.044;2022-09-29T09:50:54;6.57;;;3.78;;
20705;SDS011;10514;49.468;11.044;2022-09-29T09:53:26;2.55;;;2.20;;
20705;SDS011;10514;49.468;11.044;2022-09-29T09:56:09;4.53;;;3.50;;
20705;SDS011;10514;49.468;11.044;2022-09-29T10:01:25;7.50;;;4.25;;
20705;SDS011;10514;49.468;11.044;2022-09-29T10:03:51;7.10;;;3.53;;
20705;SDS011;10514;49.468;11.044;2022-09-29T10:06:17;6.57;;;3.28;;
20705;SDS011;10514;49.468;11.044;2022-09-29T10:08:43;7.53;;;3.35;;
20705;SDS011;10514;49.468;11.044;2022-09-29T10:11:26;5.70;;;2.97;;
20705;SDS011;10514;49.468;11.044;2022-09-29T10:16:28;8.13;;;3.45;;
20705;SDS011;10514;49.468;11.044;2022-09-29T10:19:00;7.32;;;3.30;;
20705;SDS011;10514;49.468;11.044;2022-09-29T10:24:05;7.03;;;3.83;;
20705;SDS011;10514;49.468;11.044;2022-09-29T10:31:56;4.88;;;3.20;;
20705;SDS011;10514;49.468;11.044;2022-09-29T10:34:24;5.22;;;2.78;;
20705;SDS011;10514;49.468;11.044;2022-09-29T10:36:51;4.00;;;2.90;;
20705;SDS011;10514;49.468;11.044;2022-09-29T10:39:40;4.63;;;3.22;;
20705;SDS011;10514;49.468;11.044;2022-09-29T10:44:53;7.25;;;3.15;;
20705;SDS011;10514;49.468;11.044;2022-09-29T10:47:20;5.05;;;2.60;;
20705;SDS011;10514;49.468;11.044;2022-09-29T10:49:46;4.80;;;3.20;;
20705;SDS011;10514;49.468;11.044;2022-09-29T10:52:19;6.63;;;3.03;;
20705;SDS011;10514;49.468;11.044;2022-09-29T10:54:59;7.30;;;3.05;;
20705;SDS011;10514;49.468;11.044;2022-09-29T10:57:30;6.55;;;3.08;;
20705;SDS011;10514;49.468;11.044;2022-09-29T10:59:56;6.95;;;3.30;;
20705;SDS011;10514;49.468;11.044;2022-09-29T11:02:29;4.80;;;2.80;;
20705;SDS011;10514;49.468;11.044;2022-09-29T11:05:02;7.13;;;3.22;;
20705;SDS011;10514;49.468;11.044;2022-09-29T11:07:28;4.57;;;2.45;;
20705;SDS011;10514;49.468;11.044;2022-09-29T11:09:56;13.25;;;3.78;;
20705;SDS011;10514;49.468;11.044;2022-09-29T11:12:30;8.35;;;3.67;;
20705;SDS011;10514;49.468;11.044;2022-09-29T11:14:59;5.63;;;3.22;;
20705;SDS011;10514;49.468;11.044;2022-09-29T11:19:51;6.70;;;3.47;;
20705;SDS011;10514;49.468;11.044;2022-09-29T11:27:21;11.73;;;3.17;;
20705;SDS011;10514;49.468;11.044;2022-09-29T11:34:54;6.70;;;2.63;;
20705;SDS011;10514;49.468;11.044;2022-09-29T11:40:00;4.55;;;2.22;;
20705;SDS011;10514;49.468;11.044;2022-09-29T11:44:55;5.32;;;2.03;;
20705;SDS011;10514;49.468;11.044;2022-09-29T11:47:30;4.00;;;1.65;;
20705;SDS011;10514;49.468;11.044;2022-09-29T11:50:20;3.25;;;1.52;;
20705;SDS011;10514;49.468;11.044;2022-09-29T11:58:33;4.13;;;1.45;;
20705;SDS011;10514;49.468;11.044;2022-09-29T12:11:30;6.15;;;2.15;;
20705;SDS011;10514;49.468;11.044;2022-09-29T12:14:19;5.47;;;1.98;;
20705;SDS011;10514;49.468;11.044;2022-09-29T12:16:58;4.15;;;1.70;;
20705;SDS011;10514;49.468;11.044;2022-09-29T12:19:26;4.57;;;2.08;;
20705;SDS011;10514;49.468;11.044;2022-09-29T12:21:54;4.10;;;1.70;;
20705;SDS011;10514;49.468;11.044;2022-09-29T12:30:02;7.20;;;2.28;;
20705;SDS011;10514;49.468;11.044;2022-09-29T12:32:54;6.15;;;2.30;;
20705;SDS011;10514;49.468;11.044;2022-09-29T12:35:36;3.10;;;2.13;;
20705;SDS011;10514;49.468;11.044;2022-09-29T12:38:11;3.88;;;2.28;;
20705;SDS011;10514;49.468;11.044;2022-09-29T12:40:42;5.75;;;2.38;;
20705;SDS011;10514;49.468;11.044;2022-09-29T12:43:28;5.18;;;2.10;;
20705;SDS011;10514;49.468;11.044;2022-09-29T12:46:10;2.47;;;1.88;;
20705;SDS011;10514;49.468;11.044;2022-09-29T12:54:02;4.60;;;2.40;;
20705;SDS011;10514;49.468;11.044;2022-09-29T12:56:33;3.13;;;2.17;;
20705;SDS011;10514;49.468;11.044;2022-09-29T12:59:02;6.10;;;2.83;;
20705;SDS011;10514;49.468;11.044;2022-09-29T13:01:50;5.88;;;2.92;;
20705;SDS011;10514;49.468;11.044;2022-09-29T13:04:23;5.68;;;2.75;;
20705;SDS011;10514;49.468;11.044;2022-09-29T13:07:02;3.50;;;2.70;;
20705;SDS011;10514;49.468;11.044;2022-09-29T13:12:48;5.50;;;2.80;;
20705;SDS011;10514;49.468;11.044;2022-09-29T13:20:33;6.15;;;3.03;;
20705;SDS011;10514;49.468;11.044;2022-09-29T13:25:41;5.57;;;3.08;;
20705;SDS011;10514;49.468;11.044;2022-09-29T13:28:21;7.03;;;2.80;;
20705;SDS011;10514;49.468;11.044;2022-09-29T13:30:49;4.68;;;2.40;;
20705;SDS011;10514;49.468;11.044;2022-09-29T13:33:20;3.67;;;2.20;;
20705;SDS011;10514;49.468;11.044;2022-09-29T13:35:49;7.53;;;1.92;;
20705;SDS011;10514;49.468;11.044;2022-09-29T13:38:17;4.47;;;2.03;;
20705;SDS011;10514;49.468;11.044;2022-09-29T13:48:52;6.82;;;2.30;;
20705;SDS011;10514;49.468;11.044;2022-09-29T13:51:23;4.65;;;2.17;;
20705;SDS011;10514;49.468;11.044;2022-09-29T13:56:48;5.10;;;2.58;;
20705;SDS011;10514;49.468;11.044;2022-09-29T13:59:16;4.43;;;2.60;;
20705;SDS011;10514;49.468;11.044;2022-09-29T14:01:43;5.10;;;1.85;;
20705;SDS011;10514;49.468;11.044;2022-09-29T14:06:54;4.88;;;1.75;;
20705;SDS011;10514;49.468;11.044;2022-09-29T14:09:24;3.55;;;2.05;;
20705;SDS011;10514;49.468;11.044;2022-09-29T14:11:57;4.95;;;2.47;;
20705;SDS011;10514;49.468;11.044;2022-09-29T14:14:30;3.60;;;2.58;;
20705;SDS011;10514;49.468;11.044;2022-09-29T14:22:57;5.72;;;2.47;;
20705;SDS011;10514;49.468;11.044;2022-09-29T14:27:39;6.25;;;2.92;;
20705;SDS011;10514;49.468;11.044;2022-09-29T14:30:15;5.47;;;2.70;;
20705;SDS011;10514;49.468;11.044;2022-09-29T14:38:01;5.20;;;3.38;;
20705;SDS011;10514;49.468;11.044;2022-09-29T14:40:28;6.80;;;3.55;;
20705;SDS011;10514;49.468;11.044;2022-09-29T14:51:34;8.38;;;3.38;;
20705;SDS011;10514;49.468;11.044;2022-09-29T14:56:52;3.40;;;2.33;;
20705;SDS011;10514;49.468;11.044;2022-09-29T14:59:43;3.70;;;2.38;;
20705;SDS011;10514;49.468;11.044;2022-09-29T15:02:20;4.55;;;2.65;;
20705;SDS011;10514;49.468;11.044;2022-09-29T15:04:47;7.80;;;2.30;;
20705;SDS011;10514;49.468;11.044;2022-09-29T15:07:14;3.42;;;2.55;;
20705;SDS011;10514;49.468;11.044;2022-09-29T15:09:44;3.30;;;2.47;;
20705;SDS011;10514;49.468;11.044;2022-09-29T15:12:15;3.90;;;2.10;;
20705;SDS011;10514;49.468;11.044;2022-09-29T15:14:41;3.88;;;2.70;;
20705;SDS011;10514;49.468;11.044;2022-09-29T15:24:57;8.05;;;4.43;;
20705;SDS011;10514;49.468;11.044;2022-09-29T15:27:25;6.15;;;3.92;;
20705;SDS011;10514;49.468;11.044;2022-09-29T15:29:55;6.53;;;3.90;;
20705;SDS011;10514;49.468;11.044;2022-09-29T15:34:48;7.55;;;4.25;;
20705;SDS011;10514;49.468;11.044;2022-09-29T15:37:14;8.93;;;4.10;;
20705;SDS011;10514;49.468;11.044;2022-09-29T15:39:42;5.00;;;3.15;;
20705;SDS011;10514;49.468;11.044;2022-09-29T15:42:13;6.82;;;3.22;;
20705;SDS011;10514;49.468;11.044;2022-09-29T15:44:55;5.25;;;3.38;;
20705;SDS011;10514;49.468;11.044;2022-09-29T15:47:39;6.00;;;3.70;;
20705;SDS011;10514;49.468;11.044;2022-09-29T15:50:19;5.70;;;3.53;;
20705;SDS011;10514;49.468;11.044;2022-09-29T15:52:45;4.72;;;3.20;;
20705;SDS011;10514;49.468;11.044;2022-09-29T15:55:13;3.67;;;2.88;;
20705;SDS011;10514;49.468;11.044;2022-09-29T15:57:44;8.73;;;3.35;;
20705;SDS011;10514;49.468;11.044;2022-09-29T16:02:45;3.67;;;3.05;;
20705;SDS011;10514;49.468;11.044;2022-09-29T16:05:13;5.22;;;3.20;;
20705;SDS011;10514;49.468;11.044;2022-09-29T16:07:48;9.75;;;3.65;;
20705;SDS011;10514;49.468;11.044;2022-09-29T16:10:19;4.72;;;3.10;;
20705;SDS011;10514;49.468;11.044;2022-09-29T16:15:41;3.47;;;2.40;;
20705;SDS011;10514;49.468;11.044;2022-09-29T16:18:14;4.10;;;2.45;;
20705;SDS011;10514;49.468;11.044;2022-09-29T16:20:53;5.97;;;2.88;;
20705;SDS011;10514;49.468;11.044;2022-09-29T16:23:21;4.10;;;3.03;;
20705;SDS011;10514;49.468;11.044;2022-09-29T16:31:37;7.63;;;3.53;;
20705;SDS011;10514;49.468;11.044;2022-09-29T16:34:24;7.43;;;5.38;;
20705;SDS011;10514;49.468;11.044;2022-09-29T16:36:55;8.45;;;5.25;;
20705;SDS011;10514;49.468;11.044;2022-09-29T16:39:22;13.25;;;6.63;;
20705;SDS011;10514;49.468;11.044;2022-09-29T16:41:54;8.05;;;4.78;;
20705;SDS011;10514;49.468;11.044;2022-09-29T16:44:27;8.20;;;4.45;;
20705;SDS011;10514;49.468;11.044;2022-09-29T16:47:14;7.10;;;3.65;;
20705;SDS011;10514;49.468;11.044;2022-09-29T16:49:44;6.85;;;3.83;;
20705;SDS011;10514;49.468;11.044;2022-09-29T16:52:23;10.55;;;5.32;;
20705;SDS011;10514;49.468;11.044;2022-09-29T16:55:37;16.50;;;9.02;;
20705;SDS011;10514;49.468;11.044;2022-09-29T16:57:58;12.13;;;7.75;;
20705;SDS011;10514;49.468;11.044;2022-09-29T17:00:26;8.82;;;5.38;;
20705;SDS011;10514;49.468;11.044;2022-09-29T17:02:52;8.35;;;4.78;;
20705;SDS011;10514;49.468;11.044;2022-09-29T17:05:19;7.32;;;4.38;;
20705;SDS011;10514;49.468;11.044;2022-09-29T17:07:46;6.70;;;5.32;;
20705;SDS011;10514;49.468;11.044;2022-09-29T17:10:16;6.57;;;4.00;;
20705;SDS011;10514;49.468;11.044;2022-09-29T17:12:44;6.35;;;3.38;;
20705;SDS011;10514;49.468;11.044;2022-09-29T17:15:13;5.43;;;2.97;;
20705;SDS011;10514;49.468;11.044;2022-09-29T17:17:40;5.88;;;3.30;;
20705;SDS011;10514;49.468;11.044;2022-09-29T17:20:11;5.22;;;2.63;;
20705;SDS011;10514;49.468;11.044;2022-09-29T17:22:38;7.90;;;3.45;;
20705;SDS011;10514;49.468;11.044;2022-09-29T17:25:04;6.60;;;3.65;;
20705;SDS011;10514;49.468;11.044;2022-09-29T17:27:31;6.47;;;4.43;;
20705;SDS011;10514;49.468;11.044;2022-09-29T17:30:16;10.38;;;5.38;;
20705;SDS011;10514;49.468;11.044;2022-09-29T17:32:46;9.27;;;4.75;;
20705;SDS011;10514;49.468;11.044;2022-09-29T17:35:13;6.25;;;3.97;;
20705;SDS011;10514;49.468;11.044;2022-09-29T17:37:40;7.40;;;4.47;;
20705;SDS011;10514;49.468;11.044;2022-09-29T17:40:15;7.50;;;4.38;;
20705;SDS011;10514;49.468;11.044;2022-09-29T17:42:42;13.13;;;7.80;;
20705;SDS011;10514;49.468;11.044;2022-09-29T17:45:11;11.02;;;6.03;;
20705;SDS011;10514;49.468;11.044;2022-09-29T17:47:39;8.63;;;5.85;;
20705;SDS011;10514;49.468;11.044;2022-09-29T17:50:12;11.02;;;6.10;;
20705;SDS011;10514;49.468;11.044;2022-09-29T17:52:42;10.65;;;6.18;;